x

Fripp Nearshore (frp 2) (41033) Weather Station

2:08pm - Wed 27th Jul 2016 All times are EDT. -4 hours from GMT.

  • Wind
    11mph, 16mph gusts
  • Sea Temp 87°f
  • Air Temp 87°f
  • Sea Pressure 1016.7mb
  • Fripp Nearshore (frp 2)
  • Fripp Nearshore (frp 2)

More Historic Weather Station data

Upgrade to MSW Pro to gain access to the past 30 days of data for over 8000 Wavebouys and Weather Stations around the globe.

Join Pro

Comparision Forecast

View Surf forecast
   
Wed 07/27 2:08pm 11 16 mph 1016.7mb 87f 87f
1:08pm 9 11 mph 1017.2mb 87f 86f
12:08pm 11 13 mph 1017.4mb 87f 86f
11:08am 11 16 mph 1017.7mb 87f 85f
10:08am 11 16 mph 1017.3mb 86f 84f
9:08am 13 18 mph 1017.3mb 86f 82f
8:08am 13 18 mph 1017.2mb 87f 82f
7:08am 13 18 mph 1017mb 86f 82f
6:08am 13 18 mph 1016.8mb 86f 83f
5:08am 16 20 mph 1016.4mb 86f 84f
4:08am 20 25 mph 1016.3mb 87f 85f
3:08am 20 27 mph 1016.2mb 87f 86f
2:08am 20 27 mph 1016.3mb 87f 86f
1:08am 22 29 mph 1016.5mb 87f 86f
12:08am 22 29 mph 1016.7mb 87f 86f
Tue 07/26 11:08pm 20 27 mph 1016.4mb 87f 86f
10:08pm 20 27 mph 1015.9mb 87f 86f
9:08pm 18 22 mph 1015.5mb 87f 86f
8:08pm 18 25 mph 1015mb 87f 86f
7:08pm 18 22 mph 1014.8mb 87f 86f
6:08pm 18 22 mph 1015.4mb 87f 86f
5:08pm 16 20 mph 1015.7mb 87f 86f
4:08pm 16 20 mph 1016.1mb 87f 86f
3:08pm 18 22 mph 1016.5mb 87f 85f
2:08pm 13 18 mph 1017mb 87f 85f
1:08pm 11 16 mph 1017.4mb 87f 85f
12:08pm 9 13 mph 1018mb 86f 85f
11:08am 9 13 mph 1018mb 86f 85f
10:08am 11 13 mph 1017.9mb 86f 84f
9:08am 11 16 mph 1017.9mb 86f 83f
8:08am 11 16 mph 1017.5mb 87f 83f
7:08am 13 18 mph 1017.2mb 87f 83f
6:08am 16 20 mph 1017mb 86f 83f
5:08am 16 20 mph 1016.2mb 86f 84f
4:08am 18 22 mph 1016.2mb 86f 85f
3:08am 16 22 mph 1016.7mb 87f 85f
2:08am 16 18 mph 1017.1mb 87f 84f
1:08am 16 20 mph 1017.5mb 87f 85f
12:08am 16 20 mph 1017.8mb 87f 85f
Mon 07/25 11:08pm 16 22 mph 1017.6mb 87f 85f
10:08pm 18 22 mph 1017.1mb 87f 84f
9:08pm 16 22 mph 1016.7mb 87f 85f
8:08pm 16 20 mph 1016.3mb 87f 85f
7:08pm 16 20 mph 1016mb 88f 85f
6:08pm 16 20 mph 1016mb 88f 85f
5:08pm 11 18 mph 1016.4mb 88f 85f
4:08pm 11 16 mph 1016.8mb 88f 85f
3:08pm 11 13 mph 1017.3mb 87f 85f
2:08pm 9 11 mph 1017.5mb 87f 85f
1:08pm 9 11 mph 1017.9mb 86f 85f
12:08pm 7 9 mph 1018.5mb 87f 85f
11:08am 4 9 mph 1018.5mb 86f 85f
10:08am 4 7 mph 1018.6mb 86f 85f
9:08am 4 9 mph 1018.5mb 86f 84f
8:08am 9 13 mph 1018.2mb 86f 85f
7:08am 11 13 mph 1017.8mb 86f 85f
6:08am 13 18 mph 1017.1mb 86f 85f
5:08am 13 18 mph 1016.4mb 86f 85f
4:08am 16 20 mph 1016.3mb 86f 84f
3:08am 16 20 mph 1016.5mb 86f 85f
2:08am 18 22 mph 1016.8mb 86f 85f
1:08am 16 20 mph 1017.2mb 86f 85f
12:08am 18 20 mph 1017.3mb 86f 85f
Sun 07/24 11:08pm 16 20 mph 1017.1mb 86f 85f
10:08pm 18 22 mph 1016.8mb 87f 85f
9:08pm 16 20 mph 1016.5mb 87f 85f
8:08pm 13 18 mph 1016.1mb 87f 86f
7:08pm 13 18 mph 1015.8mb 87f 86f
6:08pm 13 20 mph 1015.9mb 88f 86f
5:08pm 13 18 mph 1015.8mb 88f 86f
4:08pm 13 18 mph 1016mb 88f 86f
3:08pm 11 13 mph 1016.5mb 88f 86f
2:08pm 9 11 mph 1016.8mb 87f 86f
1:08pm 9 13 mph 1016.9mb 86f 85f
12:08pm 11 16 mph 1017.2mb 86f 85f
11:08am 11 13 mph 1017.2mb 86f 85f
10:08am 11 13 mph 1016.9mb 85f 85f
9:08am 11 16 mph 1016.8mb 85f 85f
8:08am 11 13 mph 1016.7mb 85f 85f
7:08am 9 13 mph 1016.2mb 86f 83f
6:08am 11 13 mph 1015.8mb 86f 84f
5:08am 13 18 mph 1015mb 86f 85f
4:08am 16 20 mph 1015.3mb 86f 85f
3:08am 16 22 mph 1015.5mb 86f 85f
2:08am 16 20 mph 1015.9mb 86f 85f
1:08am 16 22 mph 1016mb 86f 85f
12:08am 16 20 mph 1015.8mb 86f 85f
Sat 07/23 11:08pm 16 20 mph 1015.7mb 86f 85f
10:08pm 16 20 mph 1015.7mb 86f 85f
9:08pm 16 20 mph 1014.9mb 87f 85f
8:08pm 16 20 mph 1014.3mb 87f 85f